Time;durP1;ratioP1;P1;durP2;ratioP2;P2;SDS_P1;SDS_P2;PMS_P1;PMS_P2;Temp;Humidity;BMP_temperature;BMP_pressure;BME280_temperature;BME280_humidity;BME280_pressure;Samples;Min_cycle;Max_cycle;Signal;HPM_P1;HPM_P2
2023/01/03 00:00:14;;;;;;;0.40;0.40;;;9.70;99.90;;;;;;4443517;32;20450;-65
2023/01/03 00:02:39;;;;;;;0.32;0.32;;;9.70;99.90;;;;;;4440324;32;20092;-66
2023/01/03 00:05:05;;;;;;;0.40;0.40;;;9.70;99.90;;;;;;4439681;32;20120;-66
2023/01/03 00:07:34;;;;;;;0.40;0.40;;;9.70;99.90;;;;;;4442368;32;20094;-66
2023/01/03 00:10:01;;;;;;;0.50;0.50;;;9.70;99.90;;;;;;4438126;32;20072;-65
2023/01/03 00:12:28;;;;;;;0.32;0.32;;;9.70;99.90;;;;;;4424950;32;20092;-65
2023/01/03 00:14:54;;;;;;;0.30;0.30;;;9.70;99.90;;;;;;4433405;32;20064;-66
2023/01/03 00:17:20;;;;;;;0.50;0.50;;;9.70;99.90;;;;;;4440358;32;20097;-66
2023/01/03 00:19:46;;;;;;;1.95;1.15;;;9.70;99.90;;;;;;4443087;32;20083;-66
2023/01/03 00:22:13;;;;;;;0.30;0.30;;;9.70;99.90;;;;;;4442280;32;20186;-66
2023/01/03 00:24:38;;;;;;;0.40;0.40;;;9.70;99.90;;;;;;4444219;32;20073;-65
2023/01/03 00:27:04;;;;;;;0.80;0.80;;;9.70;99.90;;;;;;4442726;32;20066;-66
2023/01/03 00:29:30;;;;;;;0.40;0.40;;;9.80;99.90;;;;;;4441631;32;20089;-66
2023/01/03 00:31:56;;;;;;;0.43;0.43;;;9.70;99.90;;;;;;4440814;32;20329;-65
2023/01/03 00:34:21;;;;;;;0.30;0.30;;;9.70;99.90;;;;;;4440977;32;20088;-66
2023/01/03 00:36:47;;;;;;;0.40;0.40;;;9.70;99.90;;;;;;4441169;32;20084;-66
2023/01/03 00:39:12;;;;;;;1.75;0.65;;;9.70;99.90;;;;;;4442415;32;20061;-66
2023/01/03 00:41:38;;;;;;;0.30;0.30;;;9.70;99.90;;;;;;4414325;32;20085;-66
2023/01/03 00:44:04;;;;;;;0.37;0.37;;;9.60;99.90;;;;;;4432813;32;20148;-66
2023/01/03 00:46:30;;;;;;;0.30;0.30;;;9.60;99.90;;;;;;4441005;32;20082;-66
2023/01/03 00:48:55;;;;;;;0.37;0.37;;;9.60;99.90;;;;;;4443693;32;20104;-66
2023/01/03 00:51:24;;;;;;;0.40;0.40;;;9.60;99.90;;;;;;4445747;32;20524;-66
2023/01/03 00:53:51;;;;;;;0.68;0.68;;;9.60;99.90;;;;;;4445105;32;20077;-66
2023/01/03 00:56:18;;;;;;;0.30;0.30;;;9.50;99.90;;;;;;4443374;32;20060;-66
2023/01/03 00:58:44;;;;;;;0.30;0.30;;;9.50;99.90;;;;;;4441764;32;20076;-65
2023/01/03 01:01:15;;;;;;;0.30;0.30;;;9.40;99.90;;;;;;4446678;32;20119;-66
2023/01/03 01:03:44;;;;;;;;;;;9.40;99.90;;;;;;4442115;32;20065;-66
2023/01/03 01:06:13;;;;;;;0.73;0.73;;;9.30;99.90;;;;;;4442356;32;20346;-66
2023/01/03 01:08:38;;;;;;;0.30;0.30;;;9.30;99.90;;;;;;4442594;32;20057;-66
2023/01/03 01:11:04;;;;;;;0.30;0.30;;;9.30;99.90;;;;;;4433399;32;20455;-66
2023/01/03 01:13:31;;;;;;;0.50;0.50;;;9.20;99.90;;;;;;4429994;32;20061;-65
2023/01/03 01:16:05;;;;;;;0.30;0.30;;;9.20;99.90;;;;;;4437518;32;20552;-66
2023/01/03 01:18:31;;;;;;;0.30;0.30;;;9.10;99.90;;;;;;4441367;32;20053;-66
2023/01/03 01:20:56;;;;;;;3.62;0.50;;;9.10;99.90;;;;;;4442963;32;20072;-64
2023/01/03 01:23:22;;;;;;;0.40;0.40;;;9.10;99.90;;;;;;4445419;32;20084;-64
2023/01/03 01:25:47;;;;;;;1.02;0.35;;;9.10;99.90;;;;;;4443838;32;20065;-64
2023/01/03 01:28:12;;;;;;;0.30;0.30;;;9.10;99.90;;;;;;4444460;32;20115;-64
2023/01/03 01:30:38;;;;;;;0.30;0.30;;;9.10;99.90;;;;;;4445547;32;20187;-64
2023/01/03 01:33:03;;;;;;;0.40;0.40;;;9.10;99.90;;;;;;4442267;32;20131;-64
2023/01/03 01:35:30;;;;;;;0.32;0.32;;;9.10;99.90;;;;;;4447369;32;20089;-63
2023/01/03 01:37:55;;;;;;;0.40;0.40;;;9.00;99.90;;;;;;4443910;32;20176;-64
2023/01/03 01:40:21;;;;;;;0.75;0.68;;;9.00;99.90;;;;;;4436455;32;20654;-63
2023/01/03 01:44:46;;;;;;;1.45;0.85;;;8.90;99.90;;;;;;4427388;32;20422;-64
2023/01/03 01:45:34;;;;;;;0.30;0.30;;;8.90;99.90;;;;;;4435033;32;20089;-66
2023/01/03 01:48:04;;;;;;;0.40;0.40;;;8.90;99.90;;;;;;4439755;32;20154;-64
2023/01/03 01:50:52;;;;;;;0.40;0.40;;;8.80;99.90;;;;;;4443939;32;20076;-64
2023/01/03 01:53:24;;;;;;;0.35;0.35;;;8.80;99.90;;;;;;4442154;32;20915;-64
2023/01/03 01:56:02;;;;;;;0.32;0.32;;;8.80;99.90;;;;;;4441940;32;20074;-65
2023/01/03 01:58:33;;;;;;;0.45;0.45;;;8.80;99.90;;;;;;4441123;32;20100;-65
2023/01/03 02:00:59;;;;;;;0.37;0.37;;;8.80;99.90;;;;;;4442572;32;20061;-65
2023/01/03 02:03:24;;;;;;;0.50;0.50;;;8.70;99.90;;;;;;4441671;32;20100;-65
2023/01/03 02:05:52;;;;;;;0.40;0.40;;;8.80;99.90;;;;;;4442279;32;20053;-65
2023/01/03 02:08:18;;;;;;;0.37;0.37;;;8.80;99.90;;;;;;4442443;32;20118;-66
2023/01/03 02:11:15;;;;;;;0.32;0.32;;;8.80;99.90;;;;;;4432495;32;20081;-65
2023/01/03 02:14:07;;;;;;;0.52;0.52;;;8.70;99.90;;;;;;4427831;32;20101;-65
2023/01/03 02:17:03;;;;;;;0.43;0.40;;;8.70;99.90;;;;;;4439277;32;20118;-65
2023/01/03 02:19:49;;;;;;;0.30;0.30;;;8.70;99.90;;;;;;4439358;32;20590;-65
2023/01/03 02:22:49;;;;;;;0.30;0.30;;;8.60;99.90;;;;;;4442350;32;20152;-65
2023/01/03 02:25:39;;;;;;;4.95;1.90;;;8.60;99.90;;;;;;4437740;32;20539;-64
2023/01/03 02:28:29;;;;;;;0.98;0.88;;;8.60;99.90;;;;;;4437808;32;20093;-65
2023/01/03 02:31:11;;;;;;;0.40;0.40;;;8.60;99.90;;;;;;4441042;32;20097;-65
2023/01/03 02:33:47;;;;;;;0.50;0.50;;;8.60;99.90;;;;;;4439590;32;20098;-66
2023/01/03 02:36:20;;;;;;;0.30;0.30;;;8.50;99.90;;;;;;4439498;32;20334;-65
2023/01/03 02:38:54;;;;;;;0.57;0.57;;;8.40;99.90;;;;;;4441637;32;20077;-65
2023/01/03 02:41:43;;;;;;;0.30;0.30;;;8.40;99.90;;;;;;4428591;32;20065;-65
2023/01/03 02:44:33;;;;;;;0.30;0.30;;;8.40;99.90;;;;;;4431154;32;20514;-65
2023/01/03 02:47:04;;;;;;;0.30;0.30;;;8.30;99.90;;;;;;4441856;32;20061;-65
2023/01/03 02:49:31;;;;;;;;;;;8.30;99.90;;;;;;4442852;32;20781;-65
2023/01/03 02:52:02;;;;;;;0.20;0.20;;;8.20;99.90;;;;;;4442233;32;19959;-65
2023/01/03 02:54:37;;;;;;;0.30;0.30;;;8.20;99.90;;;;;;4441104;32;20131;-65
2023/01/03 02:57:08;;;;;;;0.30;0.30;;;8.10;99.90;;;;;;4437982;32;20056;-66
2023/01/03 02:59:37;;;;;;;;;;;8.10;99.90;;;;;;4442122;32;20104;-65
2023/01/03 03:02:04;;;;;;;0.30;0.30;;;8.10;99.90;;;;;;4442609;32;19951;-65
2023/01/03 03:04:31;;;;;;;1.85;0.88;;;8.00;99.90;;;;;;4443303;32;20073;-65
2023/01/03 03:07:20;;;;;;;0.40;0.40;;;7.90;99.90;;;;;;4443481;32;20103;-65
2023/01/03 03:13:33;;;;;;;0.30;0.30;;;7.90;99.90;;;;;;4426881;32;20085;-65
2023/01/03 03:15:21;;;;;;;0.35;0.35;;;7.80;99.90;;;;;;4434377;32;20072;-65
2023/01/03 03:17:50;;;;;;;0.40;0.40;;;7.70;99.90;;;;;;4440708;32;20101;-65
2023/01/03 03:25:09;;;;;;;0.50;0.50;;;7.80;99.90;;;;;;4440202;32;20057;-65
2023/01/03 03:26:05;;;;;;;0.30;0.30;;;7.70;99.90;;;;;;4437183;32;20078;-64
2023/01/03 03:28:35;;;;;;;0.30;0.30;;;7.70;99.90;;;;;;4441465;32;20545;-65
2023/01/03 03:31:07;;;;;;;0.40;0.40;;;7.60;99.90;;;;;;4440682;32;20056;-64
2023/01/03 03:33:38;;;;;;;0.32;0.32;;;7.60;99.90;;;;;;4441813;32;20057;-65
2023/01/03 03:36:09;;;;;;;0.30;0.30;;;7.60;99.90;;;;;;4440963;32;20094;-65
2023/01/03 03:38:39;;;;;;;0.30;0.30;;;7.60;99.90;;;;;;4441803;32;20097;-65
2023/01/03 03:45:13;;;;;;;0.30;0.30;;;7.50;99.90;;;;;;4427844;32;20099;-66
2023/01/03 03:47:06;;;;;;;0.30;0.30;;;7.50;99.90;;;;;;4438315;32;20212;-65
2023/01/03 03:49:37;;;;;;;0.50;0.50;;;7.40;99.90;;;;;;4443130;32;20426;-65
2023/01/03 03:52:07;;;;;;;0.40;0.40;;;7.40;99.90;;;;;;4443187;32;20411;-65
2023/01/03 03:54:36;;;;;;;0.32;0.32;;;7.40;99.90;;;;;;4443338;32;20564;-65
2023/01/03 03:57:14;;;;;;;0.37;0.37;;;7.40;99.90;;;;;;4442337;32;20084;-65
2023/01/03 03:59:45;;;;;;;0.60;0.57;;;7.30;99.90;;;;;;4445146;32;20076;-65
2023/01/03 04:02:12;;;;;;;;;;;7.30;99.90;;;;;;4444523;32;20102;-65
2023/01/03 04:04:43;;;;;;;0.40;0.40;;;7.30;99.90;;;;;;4446289;32;20464;-65
2023/01/03 04:07:08;;;;;;;;;;;7.30;99.90;;;;;;4443082;32;20081;-65
2023/01/03 04:09:33;;;;;;;0.40;0.40;;;7.20;99.90;;;;;;4440289;32;19972;-64
2023/01/03 04:11:59;;;;;;;0.30;0.30;;;7.20;99.90;;;;;;4432053;32;20093;-65
2023/01/03 04:14:24;;;;;;;0.30;0.30;;;7.20;99.90;;;;;;4432002;32;20077;-65
2023/01/03 04:16:50;;;;;;;0.30;0.30;;;7.10;99.90;;;;;;4446051;32;20467;-65
2023/01/03 04:19:15;;;;;;;0.30;0.30;;;7.10;99.90;;;;;;4443231;32;20174;-65
2023/01/03 04:21:41;;;;;;;0.40;0.40;;;7.10;99.90;;;;;;4446206;32;20062;-65
2023/01/03 04:24:07;;;;;;;0.85;0.52;;;7.10;99.90;;;;;;4445069;32;20347;-65
2023/01/03 04:26:32;;;;;;;0.52;0.52;;;7.10;99.90;;;;;;4446125;32;20450;-65
2023/01/03 04:28:58;;;;;;;0.40;0.40;;;7.10;99.90;;;;;;4444203;32;20115;-65
2023/01/03 04:31:23;;;;;;;0.30;0.30;;;7.10;99.90;;;;;;4445237;32;20074;-65
2023/01/03 04:33:49;;;;;;;0.47;0.47;;;7.10;99.90;;;;;;4447722;32;20096;-65
2023/01/03 04:36:17;;;;;;;0.30;0.30;;;7.10;99.90;;;;;;4445457;32;20081;-64
2023/01/03 04:38:42;;;;;;;4.25;1.15;;;7.10;99.90;;;;;;4444571;32;20092;-65
2023/01/03 04:41:08;;;;;;;0.35;0.35;;;7.00;99.90;;;;;;4435919;32;20441;-65
2023/01/03 04:44:05;;;;;;;0.30;0.30;;;7.00;99.90;;;;;;4430941;32;20084;-65
2023/01/03 04:46:20;;;;;;;0.45;0.45;;;7.00;99.90;;;;;;4439706;32;20457;-65
2023/01/03 04:48:45;;;;;;;0.40;0.40;;;7.00;99.90;;;;;;4440231;32;20442;-65
2023/01/03 04:51:11;;;;;;;0.30;0.30;;;6.90;99.90;;;;;;4445867;32;20077;-65
2023/01/03 04:53:37;;;;;;;0.40;0.40;;;6.90;99.90;;;;;;4445083;32;20101;-65
2023/01/03 04:56:02;;;;;;;0.60;0.60;;;6.80;99.90;;;;;;4442553;32;20562;-65
2023/01/03 04:58:28;;;;;;;0.40;0.40;;;6.80;99.90;;;;;;4444949;32;20599;-65
2023/01/03 05:01:02;;;;;;;0.30;0.30;;;6.80;99.90;;;;;;4442840;32;20446;-65
2023/01/03 05:03:29;;;;;;;0.40;0.40;;;6.90;99.90;;;;;;4441401;32;20188;-65
2023/01/03 05:05:59;;;;;;;0.45;0.45;;;6.90;99.90;;;;;;4444058;32;20065;-65
2023/01/03 05:08:25;;;;;;;0.62;0.55;;;6.90;99.90;;;;;;4443019;32;20102;-65
2023/01/03 05:10:52;;;;;;;2.92;1.05;;;6.80;99.90;;;;;;4433726;32;20081;-65
2023/01/03 05:13:18;;;;;;;0.50;0.50;;;6.80;99.90;;;;;;4430847;32;20510;-65
2023/01/03 05:15:44;;;;;;;0.50;0.50;;;6.80;99.90;;;;;;4438308;32;20056;-65
2023/01/03 05:18:10;;;;;;;0.30;0.30;;;6.70;99.90;;;;;;4442764;32;20101;-65
2023/01/03 05:25:53;;;;;;;0.60;0.60;;;6.60;99.90;;;;;;4402494;32;20128;-64
2023/01/03 05:26:11;;;;;;;0.70;0.50;;;6.50;99.90;;;;;;4395961;32;20705;-64
2023/01/03 05:28:38;;;;;;;0.40;0.40;;;6.40;99.90;;;;;;4400285;32;20414;-64
2023/01/03 05:31:04;;;;;;;0.30;0.30;;;6.40;99.90;;;;;;4409489;32;20141;-64
2023/01/03 05:33:29;;;;;;;0.30;0.30;;;6.40;99.90;;;;;;4402849;32;20236;-64
2023/01/03 05:35:55;;;;;;;0.40;0.40;;;6.40;99.90;;;;;;4406690;32;20504;-64
2023/01/03 05:38:22;;;;;;;0.30;0.30;;;6.40;99.90;;;;;;4436326;32;20120;-65
2023/01/03 05:40:48;;;;;;;0.40;0.40;;;6.40;99.90;;;;;;4435830;32;20098;-65
2023/01/03 05:43:14;;;;;;;0.77;0.77;;;6.40;99.90;;;;;;4429817;32;20109;-65
2023/01/03 05:45:40;;;;;;;0.40;0.40;;;6.50;99.90;;;;;;4438719;32;20080;-65
2023/01/03 05:48:07;;;;;;;0.45;0.45;;;6.50;99.90;;;;;;4438658;32;20073;-65
2023/01/03 05:50:32;;;;;;;0.32;0.32;;;6.40;99.90;;;;;;4443897;32;20544;-65
2023/01/03 05:52:58;;;;;;;0.28;0.28;;;6.30;99.90;;;;;;4413699;32;20076;-65
2023/01/03 05:55:24;;;;;;;0.40;0.40;;;6.40;99.90;;;;;;4406371;32;20890;-64
2023/01/03 05:57:51;;;;;;;3.55;0.98;;;6.30;99.90;;;;;;4427237;32;20073;-65
2023/01/03 06:00:17;;;;;;;0.37;0.37;;;6.40;99.90;;;;;;4439908;32;20097;-65
2023/01/03 06:02:42;;;;;;;0.30;0.30;;;6.40;99.90;;;;;;4426779;32;20442;-64
2023/01/03 06:05:08;;;;;;;0.37;0.37;;;6.40;99.90;;;;;;4412612;32;20127;-64
2023/01/03 06:07:36;;;;;;;0.62;0.62;;;6.40;99.90;;;;;;4414977;32;20064;-65
2023/01/03 06:10:02;;;;;;;0.47;0.47;;;6.30;99.90;;;;;;4402388;32;20073;-64
2023/01/03 06:12:29;;;;;;;1.45;0.73;;;6.30;99.90;;;;;;4387138;32;20227;-64
2023/01/03 06:14:54;;;;;;;0.40;0.40;;;6.40;99.90;;;;;;4393384;32;20226;-65
2023/01/03 06:18:20;;;;;;;0.40;0.40;;;6.40;99.90;;;;;;4394862;32;20518;-64
2023/01/03 06:20:06;;;;;;;19.08;0.73;;;6.30;99.90;;;;;;4344543;32;20246;-65
2023/01/03 06:22:32;;;;;;;0.30;0.30;;;6.30;99.90;;;;;;4362322;32;20266;-65
2023/01/03 06:24:58;;;;;;;2.53;1.40;;;6.30;99.90;;;;;;4330682;32;20274;-64
2023/01/03 06:27:23;;;;;;;0.47;0.47;;;6.30;99.90;;;;;;4350864;32;20344;-64
2023/01/03 06:29:49;;;;;;;0.30;0.30;;;6.30;99.90;;;;;;4330789;32;20739;-64
2023/01/03 06:32:14;;;;;;;26.20;1.08;;;6.30;99.90;;;;;;4320319;32;20146;-65
2023/01/03 06:34:40;;;;;;;1.25;0.60;;;6.30;99.90;;;;;;4347009;32;20096;-64
2023/01/03 06:37:06;;;;;;;1.33;0.68;;;6.20;99.90;;;;;;4350627;32;20226;-64
2023/01/03 06:39:33;;;;;;;0.35;0.35;;;6.20;99.90;;;;;;4356999;32;20271;-65
2023/01/03 06:42:38;;;;;;;0.35;0.35;;;6.20;99.90;;;;;;4357684;32;20609;-65
2023/01/03 06:53:10;;;;;;;0.37;0.37;;;6.20;99.90;;;;;;4370310;32;20097;-63
2023/01/03 06:53:18;;;;;;;0.50;0.50;;;6.10;99.90;;;;;;4383691;32;20203;-64
2023/01/03 06:55:45;;;;;;;0.30;0.30;;;6.10;99.90;;;;;;4388140;32;20619;-64
2023/01/03 06:58:12;;;;;;;0.45;0.45;;;6.10;99.90;;;;;;4384056;32;20452;-64
2023/01/03 07:00:39;;;;;;;0.62;0.62;;;6.10;99.90;;;;;;4359866;32;20163;-63
2023/01/03 07:03:05;;;;;;;0.37;0.37;;;6.10;99.90;;;;;;4349328;32;20892;-64
2023/01/03 07:05:30;;;;;;;0.60;0.60;;;6.10;99.90;;;;;;4353577;32;20300;-64
2023/01/03 07:07:56;;;;;;;0.50;0.50;;;6.00;99.90;;;;;;4377893;32;20269;-64
2023/01/03 07:10:22;;;;;;;0.70;0.70;;;6.00;99.90;;;;;;4388398;32;20230;-64
2023/01/03 07:14:03;;;;;;;1.35;1.25;;;6.00;99.90;;;;;;4389080;32;20297;-64
2023/01/03 07:15:33;;;;;;;0.30;0.30;;;6.00;99.90;;;;;;4387645;32;20076;-64
2023/01/03 07:17:59;;;;;;;0.52;0.52;;;5.90;99.90;;;;;;4388649;32;20791;-64
2023/01/03 07:20:24;;;;;;;1.00;0.95;;;6.00;99.90;;;;;;4371387;32;20369;-64
2023/01/03 07:22:51;;;;;;;3.65;1.62;;;6.00;99.90;;;;;;4385922;32;20238;-64
2023/01/03 07:25:16;;;;;;;0.47;0.47;;;5.90;99.90;;;;;;4389219;32;20097;-64
2023/01/03 07:27:42;;;;;;;0.40;0.40;;;5.80;99.90;;;;;;4393221;32;20086;-64
2023/01/03 07:30:08;;;;;;;0.90;0.75;;;5.80;99.90;;;;;;4368581;32;20097;-63
2023/01/03 07:32:33;;;;;;;0.30;0.30;;;5.80;99.90;;;;;;4368264;32;101266;-64
2023/01/03 07:34:59;;;;;;;0.50;0.50;;;5.70;99.90;;;;;;4362697;32;20593;-64
2023/01/03 07:37:25;;;;;;;0.30;0.30;;;5.70;99.90;;;;;;4379175;32;20189;-64
2023/01/03 07:39:50;;;;;;;0.57;0.57;;;5.70;99.90;;;;;;4385800;32;20712;-64
2023/01/03 07:43:46;;;;;;;0.30;0.30;;;5.70;99.90;;;;;;4394865;32;20437;-64
2023/01/03 07:45:01;;;;;;;0.47;0.47;;;5.70;99.90;;;;;;4387502;32;20120;-63
2023/01/03 07:47:26;;;;;;;0.45;0.45;;;5.80;99.90;;;;;;4394810;32;20529;-64
2023/01/03 07:49:52;;;;;;;0.60;0.60;;;5.80;99.90;;;;;;4373250;32;20868;-62
2023/01/03 07:52:17;;;;;;;9.75;0.57;;;5.80;99.90;;;;;;4387980;32;20109;-61
2023/01/03 07:54:43;;;;;;;0.40;0.40;;;5.80;99.90;;;;;;4389413;32;20100;-64
2023/01/03 07:57:08;;;;;;;0.40;0.40;;;5.80;99.90;;;;;;4392052;32;20334;-65
2023/01/03 07:59:34;;;;;;;0.50;0.50;;;5.80;99.90;;;;;;4384419;32;20092;-63
2023/01/03 08:01:59;;;;;;;0.30;0.30;;;5.90;99.90;;;;;;4371208;32;20304;-62
2023/01/03 08:04:25;;;;;;;0.60;0.60;;;5.90;99.90;;;;;;4364890;32;20867;-62
2023/01/03 08:06:50;;;;;;;0.40;0.40;;;6.00;99.90;;;;;;4371652;32;20138;-62
2023/01/03 08:13:16;;;;;;;0.50;0.50;;;5.90;99.90;;;;;;4394312;32;20151;-63
2023/01/03 08:14:47;;;;;;;0.40;0.40;;;6.00;99.90;;;;;;4396579;32;20486;-63
2023/01/03 08:17:12;;;;;;;0.30;0.30;;;6.00;99.90;;;;;;4398997;32;20375;-63
2023/01/03 08:19:38;;;;;;;0.62;0.62;;;6.00;99.90;;;;;;4376205;32;20595;-63
2023/01/03 08:22:03;;;;;;;0.50;0.50;;;6.00;99.90;;;;;;4381423;32;20125;-63
2023/01/03 08:24:29;;;;;;;0.30;0.30;;;6.00;99.90;;;;;;4384392;32;20126;-62
2023/01/03 08:26:54;;;;;;;0.30;0.30;;;6.00;99.90;;;;;;4388663;32;20085;-63
2023/01/03 08:29:20;;;;;;;0.50;0.50;;;6.20;99.90;;;;;;4368400;32;20928;-64
2023/01/03 08:31:51;;;;;;;0.40;0.40;;;6.20;99.90;;;;;;4350050;32;20204;-62
2023/01/03 08:34:17;;;;;;;0.55;0.55;;;6.30;99.90;;;;;;4327750;32;20572;-64
2023/01/03 08:36:49;;;;;;;0.60;0.60;;;6.40;99.90;;;;;;4367473;32;20905;-63
2023/01/03 08:39:18;;;;;;;0.50;0.50;;;6.40;99.90;;;;;;4394962;32;20115;-63
2023/01/03 08:41:48;;;;;;;0.80;0.80;;;6.40;99.90;;;;;;4397932;32;20429;-63
2023/01/03 08:44:14;;;;;;;1.10;0.75;;;6.40;99.90;;;;;;4401844;32;20352;-64
2023/01/03 08:46:44;;;;;;;0.65;0.65;;;6.40;99.90;;;;;;4392750;32;20110;-64
2023/01/03 08:49:11;;;;;;;0.55;0.55;;;6.40;99.90;;;;;;4368270;32;20756;-64
2023/01/03 08:51:37;;;;;;;0.30;0.30;;;6.50;99.90;;;;;;4355036;32;20160;-64
2023/01/03 08:54:02;;;;;;;0.40;0.40;;;6.60;99.90;;;;;;4377062;32;20085;-64
2023/01/03 08:56:28;;;;;;;0.28;0.28;;;6.60;99.90;;;;;;4385431;32;20328;-64
2023/01/03 08:58:56;;;;;;;0.30;0.30;;;6.70;99.90;;;;;;4393226;32;20970;-63
2023/01/03 09:01:23;;;;;;;2.95;1.17;;;6.80;99.90;;;;;;4382764;32;20196;-63
2023/01/03 09:03:48;;;;;;;0.52;0.52;;;6.90;99.90;;;;;;4374494;32;20157;-64
2023/01/03 09:06:14;;;;;;;0.30;0.30;;;7.00;99.90;;;;;;4384873;32;20073;-63
2023/01/03 09:08:40;;;;;;;0.52;0.52;;;7.00;99.90;;;;;;4391930;32;20093;-63
2023/01/03 09:11:07;;;;;;;4.25;2.62;;;7.00;99.90;;;;;;4388358;32;20358;-64
2023/01/03 09:13:34;;;;;;;0.45;0.40;;;7.10;99.90;;;;;;4387296;32;20089;-64
2023/01/03 09:16:04;;;;;;;0.55;0.47;;;7.10;99.90;;;;;;4391402;32;20109;-63
2023/01/03 09:18:29;;;;;;;0.47;0.47;;;7.10;99.90;;;;;;4370167;32;20097;-64
2023/01/03 09:20:55;;;;;;;0.40;0.40;;;7.20;99.90;;;;;;4379542;32;20379;-64
2023/01/03 09:23:21;;;;;;;0.88;0.88;;;7.30;99.90;;;;;;4391712;32;20334;-63
2023/01/03 09:25:46;;;;;;;0.40;0.40;;;7.40;99.90;;;;;;4395676;32;20623;-64
2023/01/03 09:28:12;;;;;;;0.40;0.40;;;7.40;99.90;;;;;;4392475;32;20093;-64
2023/01/03 09:30:38;;;;;;;0.28;0.28;;;7.50;99.90;;;;;;4377303;32;20694;-64
2023/01/03 09:33:04;;;;;;;0.75;0.75;;;7.60;99.90;;;;;;4387591;32;20119;-64
2023/01/03 09:35:30;;;;;;;2.05;1.48;;;7.70;99.90;;;;;;4383162;32;20089;-63
2023/01/03 09:37:56;;;;;;;1.85;1.40;;;7.80;99.90;;;;;;4385780;32;20082;-64
2023/01/03 09:40:23;;;;;;;0.30;0.30;;;7.70;99.90;;;;;;4401557;32;20105;-64
2023/01/03 09:43:21;;;;;;;0.32;0.32;;;7.80;99.90;;;;;;4398464;32;21310;-64
2023/01/03 09:45:37;;;;;;;0.82;0.68;;;7.80;99.90;;;;;;4392234;32;20093;-64
2023/01/03 09:48:05;;;;;;;0.40;0.40;;;8.00;99.90;;;;;;4400243;32;20636;-64
2023/01/03 09:50:35;;;;;;;0.40;0.40;;;8.00;99.90;;;;;;4377207;32;20159;-64
2023/01/03 10:03:48;;;;;;;0.37;0.37;;;8.20;99.90;;;;;;4369223;32;20199;-64
2023/01/03 10:04:52;;;;;;;0.93;0.82;;;8.20;99.90;;;;;;4369357;32;20111;-62
2023/01/03 10:07:31;;;;;;;0.50;0.50;;;8.40;99.90;;;;;;4379030;32;21440;-64
2023/01/03 10:10:18;;;;;;;0.30;0.30;;;8.50;99.90;;;;;;4386805;32;20262;-64
2023/01/03 10:13:00;;;;;;;1.37;1.08;;;8.30;99.90;;;;;;4380980;32;20200;-64
2023/01/03 10:15:44;;;;;;;0.70;0.70;;;8.50;99.90;;;;;;4385869;32;21052;-64
2023/01/03 10:18:38;;;;;;;1.12;0.55;;;8.50;99.90;;;;;;4375474;32;20106;-64
2023/01/03 10:21:20;;;;;;;0.40;0.40;;;8.50;99.90;;;;;;4338009;32;20869;-62
2023/01/03 10:23:48;;;;;;;0.30;0.30;;;8.40;99.90;;;;;;4334860;32;20509;-64
2023/01/03 10:26:13;;;;;;;0.30;0.30;;;8.50;99.90;;;;;;4358672;32;20142;-63
2023/01/03 10:28:43;;;;;;;0.43;0.43;;;8.40;99.90;;;;;;4358320;32;20127;-63
2023/01/03 10:31:22;;;;;;;0.52;0.52;;;8.30;99.90;;;;;;4365092;32;20243;-63
2023/01/03 10:33:48;;;;;;;0.57;0.57;;;8.40;99.90;;;;;;4342646;32;20188;-63
2023/01/03 10:36:16;;;;;;;2.15;1.23;;;8.40;99.90;;;;;;4360092;32;20484;-63
2023/01/03 10:38:43;;;;;;;0.37;0.37;;;8.40;99.90;;;;;;4376745;32;20151;-62
2023/01/03 10:41:21;;;;;;;0.98;0.88;;;8.40;99.90;;;;;;4367603;32;20200;-63
2023/01/03 10:44:03;;;;;;;0.50;0.50;;;8.40;99.90;;;;;;4386718;32;20122;-63
2023/01/03 10:46:29;;;;;;;0.40;0.40;;;8.20;99.90;;;;;;4376548;32;20093;-63
2023/01/03 10:49:10;;;;;;;0.62;0.62;;;8.20;99.90;;;;;;4362921;32;20268;-61
2023/01/03 10:51:47;;;;;;;3.70;1.27;;;8.20;99.90;;;;;;4346659;32;20102;-61
2023/01/03 10:54:44;;;;;;;0.37;0.37;;;8.10;99.90;;;;;;4358982;32;20236;-63
2023/01/03 10:57:49;;;;;;;0.85;0.85;;;8.00;99.90;;;;;;4374917;32;20164;-63
2023/01/03 11:00:39;;;;;;;0.40;0.40;;;7.90;99.90;;;;;;4360948;32;20607;-63
2023/01/03 11:03:11;;;;;;;0.85;0.85;;;8.00;99.90;;;;;;4362357;32;20889;-63
2023/01/03 11:05:39;;;;;;;0.40;0.40;;;8.10;99.90;;;;;;4357123;32;20450;-64
2023/01/03 11:08:14;;;;;;;0.40;0.40;;;8.10;99.90;;;;;;4371886;32;20374;-64
2023/01/03 11:10:51;;;;;;;0.40;0.40;;;8.00;99.90;;;;;;4386965;32;20525;-64
2023/01/03 11:13:38;;;;;;;0.30;0.30;;;7.90;99.90;;;;;;4397081;32;20101;-64
2023/01/03 11:16:14;;;;;;;0.82;0.82;;;7.80;99.90;;;;;;4381022;32;20525;-64
2023/01/03 11:18:40;;;;;;;0.55;0.55;;;8.00;99.90;;;;;;4365294;32;20545;-64
2023/01/03 11:21:11;;;;;;;0.30;0.30;;;8.10;99.90;;;;;;4354984;32;20328;-64
2023/01/03 11:24:17;;;;;;;0.35;0.35;;;8.40;99.90;;;;;;4368743;32;20316;-64
2023/01/03 11:26:51;;;;;;;0.40;0.40;;;8.60;99.90;;;;;;4378894;32;20100;-64
2023/01/03 11:29:46;;;;;;;0.43;0.43;;;8.70;99.90;;;;;;4390774;32;20259;-64
2023/01/03 11:32:41;;;;;;;2.90;0.60;;;9.00;99.90;;;;;;4390853;32;20081;-64
2023/01/03 11:35:13;;;;;;;0.37;0.37;;;9.10;99.90;;;;;;4373969;32;20943;-65
2023/01/03 11:37:54;;;;;;;0.75;0.50;;;9.50;99.90;;;;;;4387518;32;20341;-65
2023/01/03 11:40:34;;;;;;;0.50;0.50;;;9.40;99.90;;;;;;4399487;32;20109;-64
2023/01/03 11:43:29;;;;;;;0.40;0.40;;;9.20;99.90;;;;;;4402413;32;20126;-64
2023/01/03 11:46:17;;;;;;;0.95;0.80;;;9.00;99.90;;;;;;4401295;32;20133;-64
2023/01/03 11:49:08;;;;;;;0.40;0.40;;;8.80;99.90;;;;;;4385632;32;20598;-63
2023/01/03 11:51:40;;;;;;;0.57;0.57;;;8.70;99.90;;;;;;4361772;32;20238;-63
2023/01/03 11:54:10;;;;;;;0.60;0.60;;;8.50;99.90;;;;;;4364371;32;20169;-64
2023/01/03 11:56:39;;;;;;;0.60;0.60;;;8.40;99.90;;;;;;4372109;32;20105;-62
2023/01/03 11:59:34;;;;;;;0.60;0.60;;;8.30;99.90;;;;;;4374621;32;20428;-63
2023/01/03 12:02:39;;;;;;;0.30;0.30;;;8.20;99.90;;;;;;4376892;32;20278;-63
2023/01/03 12:05:29;;;;;;;3.50;2.05;;;8.10;99.90;;;;;;4364888;32;20814;-62
2023/01/03 12:08:05;;;;;;;0.50;0.50;;;8.00;99.90;;;;;;4389073;32;20363;-61
2023/01/03 12:10:50;;;;;;;0.98;0.73;;;8.00;99.90;;;;;;4393675;32;20505;-63
2023/01/03 12:13:54;;;;;;;0.45;0.45;;;7.90;99.90;;;;;;4397769;32;20128;-62
2023/01/03 12:16:31;;;;;;;0.60;0.60;;;7.90;99.90;;;;;;4385426;32;20646;-63
2023/01/03 12:19:06;;;;;;;0.65;0.65;;;7.90;99.90;;;;;;4375707;32;20106;-63
2023/01/03 12:21:35;;;;;;;0.68;0.68;;;8.00;99.90;;;;;;4384410;32;20085;-63
2023/01/03 12:24:30;;;;;;;0.82;0.80;;;7.90;99.90;;;;;;4387081;32;20325;-63
2023/01/03 12:27:04;;;;;;;0.90;0.90;;;7.90;99.90;;;;;;4388642;32;20118;-63
2023/01/03 12:29:42;;;;;;;0.35;0.35;;;7.80;99.90;;;;;;4389076;32;20359;-63
2023/01/03 12:32:15;;;;;;;0.47;0.47;;;7.90;99.90;;;;;;4389873;32;20106;-63
2023/01/03 12:34:52;;;;;;;0.50;0.50;;;8.10;99.90;;;;;;4371816;32;20291;-63
2023/01/03 12:37:25;;;;;;;0.30;0.30;;;8.80;99.90;;;;;;4382616;32;20335;-63
2023/01/03 12:40:03;;;;;;;0.40;0.40;;;9.40;99.90;;;;;;4392636;32;20077;-63
2023/01/03 12:42:55;;;;;;;11.88;1.62;;;9.80;99.90;;;;;;4383621;32;20192;-62
2023/01/03 12:45:35;;;;;;;0.30;0.30;;;10.00;99.90;;;;;;4389580;32;20117;-64
2023/01/03 12:48:30;;;;;;;0.40;0.40;;;9.90;99.90;;;;;;4379125;32;20508;-64
2023/01/03 12:50:55;;;;;;;0.30;0.30;;;9.80;99.90;;;;;;4374531;32;20250;-64
2023/01/03 12:53:37;;;;;;;0.40;0.40;;;9.60;99.90;;;;;;4363058;32;20134;-64
2023/01/03 12:56:15;;;;;;;13.00;0.95;;;9.80;99.90;;;;;;4376548;32;20177;-64
2023/01/03 12:59:10;;;;;;;0.50;0.50;;;9.90;99.90;;;;;;4381802;32;20330;-64
2023/01/03 13:01:44;;;;;;;0.47;0.47;;;10.30;99.90;;;;;;4383391;32;20587;-64
2023/01/03 13:04:20;;;;;;;1.45;0.82;;;10.30;99.90;;;;;;4368649;32;20900;-64
2023/01/03 13:06:50;;;;;;;0.40;0.40;;;10.10;99.90;;;;;;4376830;32;20564;-64
2023/01/03 13:09:22;;;;;;;0.50;0.50;;;10.20;99.90;;;;;;4392260;32;20806;-64
2023/01/03 13:11:53;;;;;;;0.80;0.80;;;10.10;99.90;;;;;;4394734;32;20882;-62
2023/01/03 13:14:24;;;;;;;1.08;0.73;;;9.90;99.90;;;;;;4390856;32;20296;-64
2023/01/03 13:16:52;;;;;;;0.40;0.40;;;10.00;99.90;;;;;;4393393;32;20121;-64
2023/01/03 13:19:21;;;;;;;0.40;0.40;;;10.20;99.90;;;;;;4376292;32;20266;-64
2023/01/03 13:21:53;;;;;;;0.40;0.40;;;10.20;99.90;;;;;;4365025;32;20521;-64
2023/01/03 13:24:43;;;;;;;0.50;0.50;;;10.20;99.90;;;;;;4382422;32;20576;-64
2023/01/03 13:27:37;;;;;;;0.50;0.50;;;9.80;99.90;;;;;;4376684;32;20868;-64
2023/01/03 13:30:17;;;;;;;4.57;1.17;;;9.70;99.90;;;;;;4358767;32;20727;-63
2023/01/03 13:32:49;;;;;;;0.62;0.62;;;9.30;99.90;;;;;;4373761;32;20270;-63
2023/01/03 13:35:17;;;;;;;0.30;0.30;;;9.20;99.90;;;;;;4382121;32;20330;-64
2023/01/03 13:37:45;;;;;;;0.40;0.40;;;9.10;99.90;;;;;;4413053;32;20053;-64
2023/01/03 13:40:29;;;;;;;0.55;0.43;;;9.10;99.90;;;;;;4401915;32;20148;-64
2023/01/03 13:43:12;;;;;;;0.60;0.60;;;9.20;99.90;;;;;;4410820;32;20144;-65
2023/01/03 13:45:41;;;;;;;0.40;0.40;;;9.00;99.90;;;;;;4409909;32;20145;-65
2023/01/03 13:48:29;;;;;;;0.40;0.40;;;8.90;99.90;;;;;;4399518;32;20161;-65
2023/01/03 13:51:14;;;;;;;0.40;0.40;;;8.80;99.90;;;;;;4391611;32;20230;-64